sensor_id;sensor_type;location;lat;lon;timestamp;temperature;humidity
37232;DHT22;23125;48.156;15.954;2024-03-08T00:00:15;8.40;57.40
37232;DHT22;23125;48.156;15.954;2024-03-08T00:02:47;8.40;57.40
37232;DHT22;23125;48.156;15.954;2024-03-08T00:05:14;8.40;57.30
37232;DHT22;23125;48.156;15.954;2024-03-08T00:07:41;8.30;57.30
37232;DHT22;23125;48.156;15.954;2024-03-08T00:10:10;8.30;57.30
37232;DHT22;23125;48.156;15.954;2024-03-08T00:12:40;8.30;57.40
37232;DHT22;23125;48.156;15.954;2024-03-08T00:15:14;8.30;57.40
37232;DHT22;23125;48.156;15.954;2024-03-08T00:17:41;8.30;57.40
37232;DHT22;23125;48.156;15.954;2024-03-08T00:20:07;8.30;57.40
37232;DHT22;23125;48.156;15.954;2024-03-08T00:22:39;8.30;57.40
37232;DHT22;23125;48.156;15.954;2024-03-08T00:25:06;8.30;57.50
37232;DHT22;23125;48.156;15.954;2024-03-08T00:27:34;8.30;57.60
37232;DHT22;23125;48.156;15.954;2024-03-08T00:30:00;8.20;57.50
37232;DHT22;23125;48.156;15.954;2024-03-08T00:32:27;8.30;57.50
37232;DHT22;23125;48.156;15.954;2024-03-08T00:34:55;8.20;57.50
37232;DHT22;23125;48.156;15.954;2024-03-08T00:37:21;8.20;57.50
37232;DHT22;23125;48.156;15.954;2024-03-08T00:39:53;8.20;57.50
37232;DHT22;23125;48.156;15.954;2024-03-08T00:42:22;8.20;57.60
37232;DHT22;23125;48.156;15.954;2024-03-08T00:44:47;8.20;57.60
37232;DHT22;23125;48.156;15.954;2024-03-08T00:47:17;8.20;57.60
37232;DHT22;23125;48.156;15.954;2024-03-08T00:49:43;8.20;57.50
37232;DHT22;23125;48.156;15.954;2024-03-08T00:52:09;8.20;57.50
37232;DHT22;23125;48.156;15.954;2024-03-08T00:54:35;8.20;57.60
37232;DHT22;23125;48.156;15.954;2024-03-08T00:57:04;8.20;57.60
37232;DHT22;23125;48.156;15.954;2024-03-08T00:59:32;8.20;57.60
37232;DHT22;23125;48.156;15.954;2024-03-08T01:01:59;8.20;57.50
37232;DHT22;23125;48.156;15.954;2024-03-08T01:04:27;8.20;57.50
37232;DHT22;23125;48.156;15.954;2024-03-08T01:06:55;8.20;57.60
37232;DHT22;23125;48.156;15.954;2024-03-08T01:09:23;8.20;57.50
37232;DHT22;23125;48.156;15.954;2024-03-08T01:11:49;8.20;57.70
37232;DHT22;23125;48.156;15.954;2024-03-08T01:14:16;8.20;57.60
37232;DHT22;23125;48.156;15.954;2024-03-08T01:16:42;8.20;57.50
37232;DHT22;23125;48.156;15.954;2024-03-08T01:19:08;8.20;57.60
37232;DHT22;23125;48.156;15.954;2024-03-08T01:21:34;8.20;57.70
37232;DHT22;23125;48.156;15.954;2024-03-08T01:24:00;8.20;57.70
37232;DHT22;23125;48.156;15.954;2024-03-08T01:26:26;8.10;57.60
37232;DHT22;23125;48.156;15.954;2024-03-08T01:28:52;8.10;57.60
37232;DHT22;23125;48.156;15.954;2024-03-08T01:31:17;8.10;57.50
37232;DHT22;23125;48.156;15.954;2024-03-08T01:33:43;8.10;57.60
37232;DHT22;23125;48.156;15.954;2024-03-08T01:36:09;8.10;57.60
37232;DHT22;23125;48.156;15.954;2024-03-08T01:38:35;8.10;57.50
37232;DHT22;23125;48.156;15.954;2024-03-08T01:41:02;8.10;57.60
37232;DHT22;23125;48.156;15.954;2024-03-08T01:43:29;8.10;57.60
37232;DHT22;23125;48.156;15.954;2024-03-08T01:45:57;8.10;57.70
37232;DHT22;23125;48.156;15.954;2024-03-08T01:48:26;8.10;57.60
37232;DHT22;23125;48.156;15.954;2024-03-08T01:50:53;8.10;57.60
37232;DHT22;23125;48.156;15.954;2024-03-08T01:53:20;8.10;58.10
37232;DHT22;23125;48.156;15.954;2024-03-08T01:55:50;8.10;57.60
37232;DHT22;23125;48.156;15.954;2024-03-08T01:58:18;8.10;57.60
37232;DHT22;23125;48.156;15.954;2024-03-08T02:00:46;8.00;57.60
37232;DHT22;23125;48.156;15.954;2024-03-08T02:03:15;8.00;57.60
37232;DHT22;23125;48.156;15.954;2024-03-08T02:05:41;8.00;57.50
37232;DHT22;23125;48.156;15.954;2024-03-08T02:08:08;7.90;57.50
37232;DHT22;23125;48.156;15.954;2024-03-08T02:10:39;8.00;57.70
37232;DHT22;23125;48.156;15.954;2024-03-08T02:13:05;7.90;57.80
37232;DHT22;23125;48.156;15.954;2024-03-08T02:15:53;8.00;58.10
37232;DHT22;23125;48.156;15.954;2024-03-08T02:18:20;7.90;57.60
37232;DHT22;23125;48.156;15.954;2024-03-08T02:20:53;7.90;57.40
37232;DHT22;23125;48.156;15.954;2024-03-08T02:23:19;7.90;57.60
37232;DHT22;23125;48.156;15.954;2024-03-08T02:25:46;7.80;57.70
37232;DHT22;23125;48.156;15.954;2024-03-08T02:28:13;7.90;57.80
37232;DHT22;23125;48.156;15.954;2024-03-08T02:30:40;7.80;57.90
37232;DHT22;23125;48.156;15.954;2024-03-08T02:33:07;7.80;57.80
37232;DHT22;23125;48.156;15.954;2024-03-08T02:35:35;7.80;57.90
37232;DHT22;23125;48.156;15.954;2024-03-08T02:38:02;7.80;58.00
37232;DHT22;23125;48.156;15.954;2024-03-08T02:40:29;7.80;58.10
37232;DHT22;23125;48.156;15.954;2024-03-08T02:42:55;7.80;58.10
37232;DHT22;23125;48.156;15.954;2024-03-08T02:45:21;7.90;58.10
37232;DHT22;23125;48.156;15.954;2024-03-08T02:47:47;7.90;58.10
37232;DHT22;23125;48.156;15.954;2024-03-08T02:50:15;7.80;58.00
37232;DHT22;23125;48.156;15.954;2024-03-08T02:52:42;7.80;57.90
37232;DHT22;23125;48.156;15.954;2024-03-08T02:55:09;7.80;58.00
37232;DHT22;23125;48.156;15.954;2024-03-08T02:57:37;7.80;58.10
37232;DHT22;23125;48.156;15.954;2024-03-08T03:00:03;7.80;58.10
37232;DHT22;23125;48.156;15.954;2024-03-08T03:02:29;7.80;58.10
37232;DHT22;23125;48.156;15.954;2024-03-08T03:04:55;7.80;58.20
37232;DHT22;23125;48.156;15.954;2024-03-08T03:07:24;7.80;58.30
37232;DHT22;23125;48.156;15.954;2024-03-08T03:09:53;7.80;58.30
37232;DHT22;23125;48.156;15.954;2024-03-08T03:12:19;7.80;58.30
37232;DHT22;23125;48.156;15.954;2024-03-08T03:14:44;7.80;58.30
37232;DHT22;23125;48.156;15.954;2024-03-08T03:17:10;7.80;58.30
37232;DHT22;23125;48.156;15.954;2024-03-08T03:19:36;7.80;58.30
37232;DHT22;23125;48.156;15.954;2024-03-08T03:22:02;7.80;58.10
37232;DHT22;23125;48.156;15.954;2024-03-08T03:24:28;7.80;58.10
37232;DHT22;23125;48.156;15.954;2024-03-08T03:26:55;7.70;57.90
37232;DHT22;23125;48.156;15.954;2024-03-08T03:29:21;7.70;57.90
37232;DHT22;23125;48.156;15.954;2024-03-08T03:31:46;7.70;58.00
37232;DHT22;23125;48.156;15.954;2024-03-08T03:34:13;7.70;58.10
37232;DHT22;23125;48.156;15.954;2024-03-08T03:36:39;7.70;58.20
37232;DHT22;23125;48.156;15.954;2024-03-08T03:39:09;7.70;58.30
37232;DHT22;23125;48.156;15.954;2024-03-08T03:41:45;7.70;58.40
37232;DHT22;23125;48.156;15.954;2024-03-08T03:44:12;7.70;58.40
37232;DHT22;23125;48.156;15.954;2024-03-08T03:46:42;7.70;58.40
37232;DHT22;23125;48.156;15.954;2024-03-08T03:49:11;7.70;58.30
37232;DHT22;23125;48.156;15.954;2024-03-08T03:51:37;7.70;58.30
37232;DHT22;23125;48.156;15.954;2024-03-08T03:54:02;7.60;58.30
37232;DHT22;23125;48.156;15.954;2024-03-08T03:56:29;7.60;58.30
37232;DHT22;23125;48.156;15.954;2024-03-08T03:58:56;7.60;58.40
37232;DHT22;23125;48.156;15.954;2024-03-08T04:01:22;7.60;58.30
37232;DHT22;23125;48.156;15.954;2024-03-08T04:03:48;7.60;58.30
37232;DHT22;23125;48.156;15.954;2024-03-08T04:06:14;7.60;58.40
37232;DHT22;23125;48.156;15.954;2024-03-08T04:08:40;7.60;58.50
37232;DHT22;23125;48.156;15.954;2024-03-08T04:11:07;7.60;59.10
37232;DHT22;23125;48.156;15.954;2024-03-08T04:13:34;7.60;58.60
37232;DHT22;23125;48.156;15.954;2024-03-08T04:16:02;7.60;58.50
37232;DHT22;23125;48.156;15.954;2024-03-08T04:18:28;7.60;58.50
37232;DHT22;23125;48.156;15.954;2024-03-08T04:20:54;7.60;58.50
37232;DHT22;23125;48.156;15.954;2024-03-08T04:23:20;7.60;59.10
37232;DHT22;23125;48.156;15.954;2024-03-08T04:25:46;7.60;58.60
37232;DHT22;23125;48.156;15.954;2024-03-08T04:28:12;7.60;58.50
37232;DHT22;23125;48.156;15.954;2024-03-08T04:30:39;7.60;58.60
37232;DHT22;23125;48.156;15.954;2024-03-08T04:33:05;7.50;58.50
37232;DHT22;23125;48.156;15.954;2024-03-08T04:35:34;7.50;58.60
37232;DHT22;23125;48.156;15.954;2024-03-08T04:38:01;7.50;58.70
37232;DHT22;23125;48.156;15.954;2024-03-08T04:40:26;7.50;58.80
37232;DHT22;23125;48.156;15.954;2024-03-08T04:42:53;7.50;58.90
37232;DHT22;23125;48.156;15.954;2024-03-08T04:45:19;7.50;58.90
37232;DHT22;23125;48.156;15.954;2024-03-08T04:47:45;7.50;58.80
37232;DHT22;23125;48.156;15.954;2024-03-08T04:50:11;7.50;58.80
37232;DHT22;23125;48.156;15.954;2024-03-08T04:52:37;7.50;58.90
37232;DHT22;23125;48.156;15.954;2024-03-08T04:55:03;7.50;59.00
37232;DHT22;23125;48.156;15.954;2024-03-08T04:57:32;7.50;59.00
37232;DHT22;23125;48.156;15.954;2024-03-08T04:59:58;7.50;59.00
37232;DHT22;23125;48.156;15.954;2024-03-08T05:02:24;7.50;59.10
37232;DHT22;23125;48.156;15.954;2024-03-08T05:04:50;7.50;59.00
37232;DHT22;23125;48.156;15.954;2024-03-08T05:07:16;7.50;59.00
37232;DHT22;23125;48.156;15.954;2024-03-08T05:09:43;7.50;59.00
37232;DHT22;23125;48.156;15.954;2024-03-08T05:12:08;7.50;59.10
37232;DHT22;23125;48.156;15.954;2024-03-08T05:14:34;7.50;59.10
37232;DHT22;23125;48.156;15.954;2024-03-08T05:17:00;7.50;59.20
37232;DHT22;23125;48.156;15.954;2024-03-08T05:19:26;7.60;59.20
37232;DHT22;23125;48.156;15.954;2024-03-08T05:21:52;7.60;59.30
37232;DHT22;23125;48.156;15.954;2024-03-08T05:24:18;7.60;59.30
37232;DHT22;23125;48.156;15.954;2024-03-08T05:26:45;7.60;59.30
37232;DHT22;23125;48.156;15.954;2024-03-08T05:29:11;7.60;59.30
37232;DHT22;23125;48.156;15.954;2024-03-08T05:31:51;7.60;59.30
37232;DHT22;23125;48.156;15.954;2024-03-08T05:34:21;7.70;59.40
37232;DHT22;23125;48.156;15.954;2024-03-08T05:36:48;7.60;59.20
37232;DHT22;23125;48.156;15.954;2024-03-08T05:39:17;7.60;59.20
37232;DHT22;23125;48.156;15.954;2024-03-08T05:41:44;7.60;59.20
37232;DHT22;23125;48.156;15.954;2024-03-08T05:44:12;7.60;59.30
37232;DHT22;23125;48.156;15.954;2024-03-08T05:46:38;7.70;59.50
37232;DHT22;23125;48.156;15.954;2024-03-08T05:49:08;7.70;59.60
37232;DHT22;23125;48.156;15.954;2024-03-08T05:51:37;7.70;59.50
37232;DHT22;23125;48.156;15.954;2024-03-08T05:54:08;7.70;59.30
37232;DHT22;23125;48.156;15.954;2024-03-08T05:56:38;7.70;59.40
37232;DHT22;23125;48.156;15.954;2024-03-08T05:59:04;7.70;59.40
37232;DHT22;23125;48.156;15.954;2024-03-08T06:01:30;7.70;59.50
37232;DHT22;23125;48.156;15.954;2024-03-08T06:03:57;7.70;59.70
37232;DHT22;23125;48.156;15.954;2024-03-08T06:06:26;7.70;59.70
37232;DHT22;23125;48.156;15.954;2024-03-08T06:08:52;7.80;59.70
37232;DHT22;23125;48.156;15.954;2024-03-08T06:11:19;7.80;59.60
37232;DHT22;23125;48.156;15.954;2024-03-08T06:13:48;7.80;59.50
37232;DHT22;23125;48.156;15.954;2024-03-08T06:16:15;7.80;59.60
37232;DHT22;23125;48.156;15.954;2024-03-08T06:18:41;7.80;59.70
37232;DHT22;23125;48.156;15.954;2024-03-08T06:21:08;7.80;59.80
37232;DHT22;23125;48.156;15.954;2024-03-08T06:23:38;7.80;59.80
37232;DHT22;23125;48.156;15.954;2024-03-08T06:26:09;7.90;59.90
37232;DHT22;23125;48.156;15.954;2024-03-08T06:28:35;7.90;59.80
37232;DHT22;23125;48.156;15.954;2024-03-08T06:31:02;7.90;59.80
37232;DHT22;23125;48.156;15.954;2024-03-08T06:33:28;7.90;59.90
37232;DHT22;23125;48.156;15.954;2024-03-08T06:35:55;7.90;59.90
37232;DHT22;23125;48.156;15.954;2024-03-08T06:38:24;8.00;60.00
37232;DHT22;23125;48.156;15.954;2024-03-08T06:40:51;8.00;60.00
37232;DHT22;23125;48.156;15.954;2024-03-08T06:43:18;8.00;60.00
37232;DHT22;23125;48.156;15.954;2024-03-08T06:45:45;8.00;60.00
37232;DHT22;23125;48.156;15.954;2024-03-08T06:48:19;8.00;59.90
37232;DHT22;23125;48.156;15.954;2024-03-08T06:50:46;8.10;60.10
37232;DHT22;23125;48.156;15.954;2024-03-08T06:53:13;8.00;59.70
37232;DHT22;23125;48.156;15.954;2024-03-08T06:55:40;8.00;59.80
37232;DHT22;23125;48.156;15.954;2024-03-08T06:58:06;8.10;60.10
37232;DHT22;23125;48.156;15.954;2024-03-08T07:00:37;8.10;60.20
37232;DHT22;23125;48.156;15.954;2024-03-08T07:03:03;8.10;60.00
37232;DHT22;23125;48.156;15.954;2024-03-08T07:05:31;8.10;60.00
37232;DHT22;23125;48.156;15.954;2024-03-08T07:07:58;8.10;60.10
37232;DHT22;23125;48.156;15.954;2024-03-08T07:10:24;8.10;60.20
37232;DHT22;23125;48.156;15.954;2024-03-08T07:12:52;8.20;60.50
37232;DHT22;23125;48.156;15.954;2024-03-08T07:15:21;8.20;60.30
37232;DHT22;23125;48.156;15.954;2024-03-08T07:17:49;8.10;59.90
37232;DHT22;23125;48.156;15.954;2024-03-08T07:20:18;8.10;59.90
37232;DHT22;23125;48.156;15.954;2024-03-08T07:22:47;8.10;60.10
37232;DHT22;23125;48.156;15.954;2024-03-08T07:25:14;8.20;60.60
37232;DHT22;23125;48.156;15.954;2024-03-08T07:27:51;8.20;60.30
37232;DHT22;23125;48.156;15.954;2024-03-08T07:30:18;8.20;60.40
37232;DHT22;23125;48.156;15.954;2024-03-08T07:33:04;8.20;60.50
37232;DHT22;23125;48.156;15.954;2024-03-08T07:35:30;8.10;60.30
37232;DHT22;23125;48.156;15.954;2024-03-08T07:37:56;8.10;60.50
37232;DHT22;23125;48.156;15.954;2024-03-08T07:40:23;8.10;60.80
37232;DHT22;23125;48.156;15.954;2024-03-08T07:42:50;8.20;60.80
37232;DHT22;23125;48.156;15.954;2024-03-08T07:45:16;8.20;61.20
37232;DHT22;23125;48.156;15.954;2024-03-08T07:47:42;8.30;61.20
37232;DHT22;23125;48.156;15.954;2024-03-08T07:50:09;8.30;61.30
37232;DHT22;23125;48.156;15.954;2024-03-08T07:52:35;8.30;61.10
37232;DHT22;23125;48.156;15.954;2024-03-08T07:55:02;8.30;61.00
37232;DHT22;23125;48.156;15.954;2024-03-08T07:57:31;8.30;61.10
37232;DHT22;23125;48.156;15.954;2024-03-08T07:59:58;8.40;61.20
37232;DHT22;23125;48.156;15.954;2024-03-08T08:02:23;8.50;62.10
37232;DHT22;23125;48.156;15.954;2024-03-08T08:04:49;8.50;61.40
37232;DHT22;23125;48.156;15.954;2024-03-08T08:07:15;8.60;61.70
37232;DHT22;23125;48.156;15.954;2024-03-08T08:09:41;8.70;61.60
37232;DHT22;23125;48.156;15.954;2024-03-08T08:12:09;8.80;61.70
37232;DHT22;23125;48.156;15.954;2024-03-08T08:14:38;8.90;62.00
37232;DHT22;23125;48.156;15.954;2024-03-08T08:17:04;9.00;61.90
37232;DHT22;23125;48.156;15.954;2024-03-08T08:19:31;9.10;62.20
37232;DHT22;23125;48.156;15.954;2024-03-08T08:21:57;9.30;62.50
37232;DHT22;23125;48.156;15.954;2024-03-08T08:24:23;9.40;61.50
37232;DHT22;23125;48.156;15.954;2024-03-08T08:26:50;9.40;60.70
37232;DHT22;23125;48.156;15.954;2024-03-08T08:29:16;9.40;60.90
37232;DHT22;23125;48.156;15.954;2024-03-08T08:31:42;9.50;60.40
37232;DHT22;23125;48.156;15.954;2024-03-08T08:34:09;9.40;60.00
37232;DHT22;23125;48.156;15.954;2024-03-08T08:36:38;9.50;59.80
37232;DHT22;23125;48.156;15.954;2024-03-08T08:39:05;9.50;60.20
37232;DHT22;23125;48.156;15.954;2024-03-08T08:41:38;9.50;60.10
37232;DHT22;23125;48.156;15.954;2024-03-08T08:44:03;9.60;60.80
37232;DHT22;23125;48.156;15.954;2024-03-08T08:46:29;9.70;60.20
37232;DHT22;23125;48.156;15.954;2024-03-08T08:48:55;9.60;60.00
37232;DHT22;23125;48.156;15.954;2024-03-08T08:51:21;9.70;60.30
37232;DHT22;23125;48.156;15.954;2024-03-08T08:53:48;9.80;60.50
37232;DHT22;23125;48.156;15.954;2024-03-08T08:56:14;9.90;60.40
37232;DHT22;23125;48.156;15.954;2024-03-08T08:58:44;10.00;60.70
37232;DHT22;23125;48.156;15.954;2024-03-08T09:01:10;10.10;60.90
37232;DHT22;23125;48.156;15.954;2024-03-08T09:03:37;10.20;59.90
37232;DHT22;23125;48.156;15.954;2024-03-08T09:06:07;10.20;59.30
37232;DHT22;23125;48.156;15.954;2024-03-08T09:08:36;10.20;59.60
37232;DHT22;23125;48.156;15.954;2024-03-08T09:11:02;10.30;58.90
37232;DHT22;23125;48.156;15.954;2024-03-08T09:13:28;10.20;58.40
37232;DHT22;23125;48.156;15.954;2024-03-08T09:15:54;10.20;58.00
37232;DHT22;23125;48.156;15.954;2024-03-08T09:18:20;10.20;58.50
37232;DHT22;23125;48.156;15.954;2024-03-08T09:20:46;10.20;58.70
37232;DHT22;23125;48.156;15.954;2024-03-08T09:23:13;10.10;58.30
37232;DHT22;23125;48.156;15.954;2024-03-08T09:25:40;10.10;58.40
37232;DHT22;23125;48.156;15.954;2024-03-08T09:28:06;10.20;58.90
37232;DHT22;23125;48.156;15.954;2024-03-08T09:30:32;10.30;59.20
37232;DHT22;23125;48.156;15.954;2024-03-08T09:33:00;10.30;58.90
37232;DHT22;23125;48.156;15.954;2024-03-08T09:35:26;10.40;59.20
37232;DHT22;23125;48.156;15.954;2024-03-08T09:37:52;10.50;58.50
37232;DHT22;23125;48.156;15.954;2024-03-08T09:40:19;10.50;58.40
37232;DHT22;23125;48.156;15.954;2024-03-08T09:42:48;10.60;58.50
37232;DHT22;23125;48.156;15.954;2024-03-08T09:45:14;10.60;58.00
37232;DHT22;23125;48.156;15.954;2024-03-08T09:47:43;10.70;58.40
37232;DHT22;23125;48.156;15.954;2024-03-08T09:50:10;10.70;57.10
37232;DHT22;23125;48.156;15.954;2024-03-08T09:52:41;10.70;56.80
37232;DHT22;23125;48.156;15.954;2024-03-08T09:55:12;10.70;57.30
37232;DHT22;23125;48.156;15.954;2024-03-08T09:57:41;10.70;57.40
37232;DHT22;23125;48.156;15.954;2024-03-08T10:00:19;10.90;58.00
37232;DHT22;23125;48.156;15.954;2024-03-08T10:02:50;10.90;58.10
37232;DHT22;23125;48.156;15.954;2024-03-08T10:05:19;11.10;58.00
37232;DHT22;23125;48.156;15.954;2024-03-08T10:07:47;11.20;58.50
37232;DHT22;23125;48.156;15.954;2024-03-08T10:10:13;11.40;57.90
37232;DHT22;23125;48.156;15.954;2024-03-08T10:12:39;11.60;58.70
37232;DHT22;23125;48.156;15.954;2024-03-08T10:15:08;11.60;56.30
37232;DHT22;23125;48.156;15.954;2024-03-08T10:17:35;11.60;56.50
37232;DHT22;23125;48.156;15.954;2024-03-08T10:20:01;11.70;56.60
37232;DHT22;23125;48.156;15.954;2024-03-08T10:22:29;11.80;56.00
37232;DHT22;23125;48.156;15.954;2024-03-08T10:24:57;11.80;55.60
37232;DHT22;23125;48.156;15.954;2024-03-08T10:27:24;11.80;55.40
37232;DHT22;23125;48.156;15.954;2024-03-08T10:29:52;11.80;55.30
37232;DHT22;23125;48.156;15.954;2024-03-08T10:32:18;11.80;55.30
37232;DHT22;23125;48.156;15.954;2024-03-08T10:34:44;11.80;55.40
37232;DHT22;23125;48.156;15.954;2024-03-08T10:37:15;11.80;54.20
37232;DHT22;23125;48.156;15.954;2024-03-08T10:40:04;11.70;54.10
37232;DHT22;23125;48.156;15.954;2024-03-08T10:42:40;11.60;54.60
37232;DHT22;23125;48.156;15.954;2024-03-08T10:45:18;11.60;54.50
37232;DHT22;23125;48.156;15.954;2024-03-08T10:47:49;11.60;54.80
37232;DHT22;23125;48.156;15.954;2024-03-08T10:50:21;11.60;54.20
37232;DHT22;23125;48.156;15.954;2024-03-08T10:52:52;11.60;54.70
37232;DHT22;23125;48.156;15.954;2024-03-08T10:55:19;11.70;55.20
37232;DHT22;23125;48.156;15.954;2024-03-08T10:57:46;11.70;54.60
37232;DHT22;23125;48.156;15.954;2024-03-08T11:00:14;11.70;54.70
37232;DHT22;23125;48.156;15.954;2024-03-08T11:02:49;11.80;55.00
37232;DHT22;23125;48.156;15.954;2024-03-08T11:05:37;11.80;54.70
37232;DHT22;23125;48.156;15.954;2024-03-08T11:10:51;11.80;53.60
37232;DHT22;23125;48.156;15.954;2024-03-08T11:13:36;11.90;54.10
37232;DHT22;23125;48.156;15.954;2024-03-08T11:16:10;11.80;54.00
37232;DHT22;23125;48.156;15.954;2024-03-08T11:18:37;11.90;53.90
37232;DHT22;23125;48.156;15.954;2024-03-08T11:21:04;11.80;53.90
37232;DHT22;23125;48.156;15.954;2024-03-08T11:23:38;11.80;53.90
37232;DHT22;23125;48.156;15.954;2024-03-08T11:26:23;11.90;54.30
37232;DHT22;23125;48.156;15.954;2024-03-08T11:28:49;12.00;54.60
37232;DHT22;23125;48.156;15.954;2024-03-08T11:31:22;12.00;54.00
37232;DHT22;23125;48.156;15.954;2024-03-08T11:33:48;12.00;53.60
37232;DHT22;23125;48.156;15.954;2024-03-08T11:36:22;12.00;53.60
37232;DHT22;23125;48.156;15.954;2024-03-08T11:38:53;12.00;53.40
37232;DHT22;23125;48.156;15.954;2024-03-08T11:41:24;12.00;53.70
37232;DHT22;23125;48.156;15.954;2024-03-08T11:44:02;12.00;53.30
37232;DHT22;23125;48.156;15.954;2024-03-08T11:46:31;12.00;52.70
37232;DHT22;23125;48.156;15.954;2024-03-08T11:48:57;12.00;52.80
37232;DHT22;23125;48.156;15.954;2024-03-08T11:51:23;11.80;52.50
37232;DHT22;23125;48.156;15.954;2024-03-08T11:53:50;11.80;53.10
37232;DHT22;23125;48.156;15.954;2024-03-08T11:56:16;11.90;53.50
37232;DHT22;23125;48.156;15.954;2024-03-08T11:58:53;11.90;53.40
37232;DHT22;23125;48.156;15.954;2024-03-08T12:01:19;12.00;53.70
37232;DHT22;23125;48.156;15.954;2024-03-08T12:03:53;12.00;53.40
37232;DHT22;23125;48.156;15.954;2024-03-08T12:06:19;11.90;53.10
37232;DHT22;23125;48.156;15.954;2024-03-08T12:08:46;12.00;53.40
37232;DHT22;23125;48.156;15.954;2024-03-08T12:11:15;12.00;53.40
37232;DHT22;23125;48.156;15.954;2024-03-08T12:13:41;12.00;53.30
37232;DHT22;23125;48.156;15.954;2024-03-08T12:16:09;12.00;53.30
37232;DHT22;23125;48.156;15.954;2024-03-08T12:18:37;12.00;53.30
37232;DHT22;23125;48.156;15.954;2024-03-08T12:21:13;12.10;53.70
37232;DHT22;23125;48.156;15.954;2024-03-08T12:24:09;12.10;53.30
37232;DHT22;23125;48.156;15.954;2024-03-08T12:26:38;12.20;53.40
37232;DHT22;23125;48.156;15.954;2024-03-08T12:29:18;12.30;53.40
37232;DHT22;23125;48.156;15.954;2024-03-08T12:31:47;12.20;53.00
37232;DHT22;23125;48.156;15.954;2024-03-08T12:34:13;12.30;53.10
37232;DHT22;23125;48.156;15.954;2024-03-08T12:36:46;12.30;52.70
37232;DHT22;23125;48.156;15.954;2024-03-08T12:39:17;12.20;52.50
37232;DHT22;23125;48.156;15.954;2024-03-08T12:41:48;12.20;52.50
37232;DHT22;23125;48.156;15.954;2024-03-08T12:44:14;12.20;52.50
37232;DHT22;23125;48.156;15.954;2024-03-08T12:46:40;12.10;52.40
37232;DHT22;23125;48.156;15.954;2024-03-08T12:49:09;12.10;52.70
37232;DHT22;23125;48.156;15.954;2024-03-08T12:51:36;12.10;52.60
37232;DHT22;23125;48.156;15.954;2024-03-08T12:54:05;12.10;52.40
37232;DHT22;23125;48.156;15.954;2024-03-08T12:56:35;12.00;52.40
37232;DHT22;23125;48.156;15.954;2024-03-08T12:59:07;12.00;52.40
37232;DHT22;23125;48.156;15.954;2024-03-08T13:01:34;12.00;52.10
37232;DHT22;23125;48.156;15.954;2024-03-08T13:04:04;11.90;52.10
37232;DHT22;23125;48.156;15.954;2024-03-08T13:06:32;11.90;52.20
37232;DHT22;23125;48.156;15.954;2024-03-08T13:08:58;11.80;51.90
37232;DHT22;23125;48.156;15.954;2024-03-08T13:11:25;11.80;52.00
37232;DHT22;23125;48.156;15.954;2024-03-08T13:13:51;11.70;51.90
37232;DHT22;23125;48.156;15.954;2024-03-08T13:16:20;11.80;52.20
37232;DHT22;23125;48.156;15.954;2024-03-08T13:18:46;11.80;52.50
37232;DHT22;23125;48.156;15.954;2024-03-08T13:21:16;11.90;52.60
37232;DHT22;23125;48.156;15.954;2024-03-08T13:23:45;11.80;52.00
37232;DHT22;23125;48.156;15.954;2024-03-08T13:26:15;11.80;51.80
37232;DHT22;23125;48.156;15.954;2024-03-08T13:31:08;11.70;51.60
37232;DHT22;23125;48.156;15.954;2024-03-08T13:33:38;11.60;51.70
37232;DHT22;23125;48.156;15.954;2024-03-08T13:36:10;11.60;51.70
37232;DHT22;23125;48.156;15.954;2024-03-08T13:38:43;11.60;51.70
37232;DHT22;23125;48.156;15.954;2024-03-08T13:41:10;11.60;51.50
37232;DHT22;23125;48.156;15.954;2024-03-08T13:43:37;11.70;51.80
37232;DHT22;23125;48.156;15.954;2024-03-08T13:46:05;11.60;52.30
37232;DHT22;23125;48.156;15.954;2024-03-08T13:48:33;11.60;51.90
37232;DHT22;23125;48.156;15.954;2024-03-08T13:51:00;11.60;52.00
37232;DHT22;23125;48.156;15.954;2024-03-08T13:53:27;11.70;52.30
37232;DHT22;23125;48.156;15.954;2024-03-08T13:55:53;11.70;51.90
37232;DHT22;23125;48.156;15.954;2024-03-08T13:58:18;11.60;51.60
37232;DHT22;23125;48.156;15.954;2024-03-08T14:00:46;11.70;51.70
37232;DHT22;23125;48.156;15.954;2024-03-08T14:03:14;11.70;51.80
37232;DHT22;23125;48.156;15.954;2024-03-08T14:05:40;11.70;51.70
37232;DHT22;23125;48.156;15.954;2024-03-08T14:08:07;11.70;52.00
37232;DHT22;23125;48.156;15.954;2024-03-08T14:10:34;11.80;52.00
37232;DHT22;23125;48.156;15.954;2024-03-08T14:13:01;11.70;51.70
37232;DHT22;23125;48.156;15.954;2024-03-08T14:15:33;11.70;51.70
37232;DHT22;23125;48.156;15.954;2024-03-08T14:18:00;11.70;51.80
37232;DHT22;23125;48.156;15.954;2024-03-08T14:20:32;11.70;51.90
37232;DHT22;23125;48.156;15.954;2024-03-08T14:22:58;11.80;52.10
37232;DHT22;23125;48.156;15.954;2024-03-08T14:25:24;11.80;52.10
37232;DHT22;23125;48.156;15.954;2024-03-08T14:27:53;11.90;52.30
37232;DHT22;23125;48.156;15.954;2024-03-08T14:30:20;12.00;52.20
37232;DHT22;23125;48.156;15.954;2024-03-08T14:33:03;11.90;51.70
37232;DHT22;23125;48.156;15.954;2024-03-08T14:35:31;12.00;51.70
37232;DHT22;23125;48.156;15.954;2024-03-08T14:37:58;12.00;51.50
37232;DHT22;23125;48.156;15.954;2024-03-08T14:40:26;11.90;51.40
37232;DHT22;23125;48.156;15.954;2024-03-08T14:42:53;11.90;51.50
37232;DHT22;23125;48.156;15.954;2024-03-08T14:45:19;11.80;51.70
37232;DHT22;23125;48.156;15.954;2024-03-08T14:47:48;11.80;51.30
37232;DHT22;23125;48.156;15.954;2024-03-08T14:50:21;11.70;51.30
37232;DHT22;23125;48.156;15.954;2024-03-08T14:52:48;11.70;51.40
37232;DHT22;23125;48.156;15.954;2024-03-08T14:55:18;11.70;51.40
37232;DHT22;23125;48.156;15.954;2024-03-08T14:57:48;11.60;51.40
37232;DHT22;23125;48.156;15.954;2024-03-08T15:00:18;11.50;51.40
37232;DHT22;23125;48.156;15.954;2024-03-08T15:02:55;11.50;51.60
37232;DHT22;23125;48.156;15.954;2024-03-08T15:05:22;11.50;51.80
37232;DHT22;23125;48.156;15.954;2024-03-08T15:07:52;11.50;51.70
37232;DHT22;23125;48.156;15.954;2024-03-08T15:10:18;11.40;51.50
37232;DHT22;23125;48.156;15.954;2024-03-08T15:12:48;11.40;51.60
37232;DHT22;23125;48.156;15.954;2024-03-08T15:15:15;11.30;51.80
37232;DHT22;23125;48.156;15.954;2024-03-08T15:17:44;11.20;51.90
37232;DHT22;23125;48.156;15.954;2024-03-08T15:20:13;11.20;51.90
37232;DHT22;23125;48.156;15.954;2024-03-08T15:22:50;11.10;51.90
37232;DHT22;23125;48.156;15.954;2024-03-08T15:25:17;11.10;52.00
37232;DHT22;23125;48.156;15.954;2024-03-08T15:27:49;11.10;52.00
37232;DHT22;23125;48.156;15.954;2024-03-08T15:30:15;11.00;52.00
37232;DHT22;23125;48.156;15.954;2024-03-08T15:32:46;11.00;52.10
37232;DHT22;23125;48.156;15.954;2024-03-08T15:35:14;10.90;52.10